Terminal Aerodrome Forecast
Issued by NWS Omaha/Valley, NE

Home | Current Version | Previous Version | Text Only | Print | Product List | Glossary On
Versions: 1 2 3 4 5 6 7 8 9 10 11 12 13 14 15 16 17 18 19 20 21 22 23 24 25 26 27 28 29 30 31 32 33 34 35 36 37 38 39 40 41
000
FTUS43 KOAX 011244 AAA
TAFOMA
TAF AMD
KOMA 011244Z 0113/0212 28006KT 6SM BR SCT015 BKN035
      TEMPO 0113/0114 6SM BR BKN015
     FM011500 31008KT P6SM SCT025 BKN250
     FM011900 33009KT P6SM SCT040 BKN150
     FM020100 VRB03KT P6SM SCT100=

USA.gov is the U.S. government's official web portal to all federal, state and local government web resources and services.